sensor_id;sensor_type;location;lat;lon;timestamp;P1;durP1;ratioP1;P2;durP2;ratioP2
19599;SDS011;9947;57.722;12.012;2022-09-13T00:06:50;12.23;;;7.13;;
19599;SDS011;9947;57.722;12.012;2022-09-13T00:09:31;17.60;;;7.40;;
19599;SDS011;9947;57.722;12.012;2022-09-13T00:12:01;10.27;;;7.67;;
19599;SDS011;9947;57.722;12.012;2022-09-13T00:14:42;12.77;;;7.60;;
19599;SDS011;9947;57.722;12.012;2022-09-13T00:17:19;11.57;;;7.33;;
19599;SDS011;9947;57.722;12.012;2022-09-13T00:19:56;17.63;;;8.00;;
19599;SDS011;9947;57.722;12.012;2022-09-13T00:22:23;15.50;;;7.80;;
19599;SDS011;9947;57.722;12.012;2022-09-13T00:24:58;14.00;;;7.40;;
19599;SDS011;9947;57.722;12.012;2022-09-13T00:27:45;17.77;;;8.40;;
19599;SDS011;9947;57.722;12.012;2022-09-13T00:30:19;14.17;;;7.80;;
19599;SDS011;9947;57.722;12.012;2022-09-13T00:32:46;20.30;;;8.43;;
19599;SDS011;9947;57.722;12.012;2022-09-13T00:35:17;16.20;;;7.57;;
19599;SDS011;9947;57.722;12.012;2022-09-13T00:37:50;13.70;;;8.40;;
19599;SDS011;9947;57.722;12.012;2022-09-13T00:40:36;14.60;;;7.40;;
19599;SDS011;9947;57.722;12.012;2022-09-13T00:43:11;10.73;;;6.30;;
19599;SDS011;9947;57.722;12.012;2022-09-13T00:46:23;13.37;;;6.83;;
19599;SDS011;9947;57.722;12.012;2022-09-13T00:49:13;10.87;;;6.00;;
19599;SDS011;9947;57.722;12.012;2022-09-13T00:52:41;13.33;;;7.13;;
19599;SDS011;9947;57.722;12.012;2022-09-13T01:05:15;13.63;;;7.07;;
19599;SDS011;9947;57.722;12.012;2022-09-13T01:08:20;14.07;;;6.90;;
19599;SDS011;9947;57.722;12.012;2022-09-13T01:10:56;17.47;;;7.30;;
19599;SDS011;9947;57.722;12.012;2022-09-13T01:13:48;9.70;;;7.10;;
19599;SDS011;9947;57.722;12.012;2022-09-13T01:16:28;15.60;;;7.73;;
19599;SDS011;9947;57.722;12.012;2022-09-13T01:19:01;13.60;;;7.17;;
19599;SDS011;9947;57.722;12.012;2022-09-13T02:12:06;13.27;;;5.03;;
19599;SDS011;9947;57.722;12.012;2022-09-13T02:14:50;11.50;;;4.60;;
19599;SDS011;9947;57.722;12.012;2022-09-13T02:17:51;9.73;;;5.03;;
19599;SDS011;9947;57.722;12.012;2022-09-13T02:20:26;8.57;;;4.07;;
19599;SDS011;9947;57.722;12.012;2022-09-13T02:22:57;11.07;;;4.53;;
19599;SDS011;9947;57.722;12.012;2022-09-13T02:25:27;9.63;;;3.73;;
19599;SDS011;9947;57.722;12.012;2022-09-13T02:28:00;11.13;;;4.20;;
19599;SDS011;9947;57.722;12.012;2022-09-13T02:30:31;12.73;;;4.00;;
19599;SDS011;9947;57.722;12.012;2022-09-13T02:33:07;10.40;;;4.60;;
19599;SDS011;9947;57.722;12.012;2022-09-13T02:35:37;14.10;;;5.30;;
19599;SDS011;9947;57.722;12.012;2022-09-13T02:38:09;14.37;;;5.37;;
19599;SDS011;9947;57.722;12.012;2022-09-13T02:40:42;12.10;;;5.40;;
19599;SDS011;9947;57.722;12.012;2022-09-13T02:43:16;17.17;;;5.80;;
19599;SDS011;9947;57.722;12.012;2022-09-13T02:45:59;24.93;;;6.00;;
19599;SDS011;9947;57.722;12.012;2022-09-13T02:57:08;38.90;;;7.93;;
19599;SDS011;9947;57.722;12.012;2022-09-13T03:02:01;25.13;;;6.70;;
19599;SDS011;9947;57.722;12.012;2022-09-13T03:04:38;18.57;;;6.70;;
19599;SDS011;9947;57.722;12.012;2022-09-13T03:07:09;38.23;;;8.00;;
19599;SDS011;9947;57.722;12.012;2022-09-13T03:09:45;26.60;;;7.80;;
19599;SDS011;9947;57.722;12.012;2022-09-13T03:29:29;21.90;;;6.63;;
19599;SDS011;9947;57.722;12.012;2022-09-13T03:32:08;25.83;;;5.87;;
19599;SDS011;9947;57.722;12.012;2022-09-13T03:34:55;13.97;;;4.23;;
19599;SDS011;9947;57.722;12.012;2022-09-13T04:22:16;4.27;;;1.87;;
19599;SDS011;9947;57.722;12.012;2022-09-13T04:24:44;8.03;;;2.13;;
19599;SDS011;9947;57.722;12.012;2022-09-13T04:27:21;19.73;;;3.80;;
19599;SDS011;9947;57.722;12.012;2022-09-13T04:30:04;6.47;;;2.30;;
19599;SDS011;9947;57.722;12.012;2022-09-13T04:32:31;12.17;;;2.60;;
19599;SDS011;9947;57.722;12.012;2022-09-13T04:34:58;9.90;;;2.57;;
19599;SDS011;9947;57.722;12.012;2022-09-13T04:37:26;8.87;;;2.37;;
19599;SDS011;9947;57.722;12.012;2022-09-13T04:39:53;7.50;;;2.60;;
19599;SDS011;9947;57.722;12.012;2022-09-13T04:42:20;5.37;;;2.43;;
19599;SDS011;9947;57.722;12.012;2022-09-13T04:44:49;8.47;;;2.90;;
19599;SDS011;9947;57.722;12.012;2022-09-13T04:47:17;9.67;;;2.87;;
19599;SDS011;9947;57.722;12.012;2022-09-13T04:49:46;5.43;;;2.43;;
19599;SDS011;9947;57.722;12.012;2022-09-13T04:52:13;5.10;;;2.60;;
19599;SDS011;9947;57.722;12.012;2022-09-13T04:54:42;9.30;;;2.50;;
19599;SDS011;9947;57.722;12.012;2022-09-13T04:57:09;8.67;;;2.77;;
19599;SDS011;9947;57.722;12.012;2022-09-13T04:59:36;9.47;;;2.30;;
19599;SDS011;9947;57.722;12.012;2022-09-13T05:02:03;10.67;;;2.73;;
19599;SDS011;9947;57.722;12.012;2022-09-13T05:04:47;6.40;;;2.10;;
19599;SDS011;9947;57.722;12.012;2022-09-13T05:07:13;2.97;;;2.10;;
19599;SDS011;9947;57.722;12.012;2022-09-13T05:09:43;5.30;;;2.40;;
19599;SDS011;9947;57.722;12.012;2022-09-13T05:12:09;5.90;;;2.60;;
19599;SDS011;9947;57.722;12.012;2022-09-13T05:14:37;9.67;;;2.90;;
19599;SDS011;9947;57.722;12.012;2022-09-13T05:17:04;5.87;;;2.57;;
19599;SDS011;9947;57.722;12.012;2022-09-13T05:19:31;7.73;;;2.37;;
19599;SDS011;9947;57.722;12.012;2022-09-13T05:21:59;8.37;;;2.13;;
19599;SDS011;9947;57.722;12.012;2022-09-13T05:24:25;7.93;;;2.17;;
19599;SDS011;9947;57.722;12.012;2022-09-13T05:26:54;11.47;;;2.50;;
19599;SDS011;9947;57.722;12.012;2022-09-13T05:29:26;7.10;;;2.20;;
19599;SDS011;9947;57.722;12.012;2022-09-13T05:38:21;6.23;;;2.50;;
19599;SDS011;9947;57.722;12.012;2022-09-13T05:40:52;5.33;;;3.00;;
19599;SDS011;9947;57.722;12.012;2022-09-13T05:43:22;10.00;;;3.00;;
19599;SDS011;9947;57.722;12.012;2022-09-13T05:45:50;10.33;;;2.53;;
19599;SDS011;9947;57.722;12.012;2022-09-13T05:48:26;8.40;;;2.40;;
19599;SDS011;9947;57.722;12.012;2022-09-13T05:51:19;8.17;;;2.80;;
19599;SDS011;9947;57.722;12.012;2022-09-13T05:54:35;8.87;;;3.00;;
19599;SDS011;9947;57.722;12.012;2022-09-13T05:57:16;8.37;;;2.60;;
19599;SDS011;9947;57.722;12.012;2022-09-13T05:59:51;12.37;;;2.60;;
19599;SDS011;9947;57.722;12.012;2022-09-13T06:02:18;12.70;;;3.07;;
19599;SDS011;9947;57.722;12.012;2022-09-13T06:04:59;9.00;;;2.53;;
19599;SDS011;9947;57.722;12.012;2022-09-13T06:07:27;14.47;;;2.60;;
19599;SDS011;9947;57.722;12.012;2022-09-13T06:14:50;10.87;;;2.50;;
19599;SDS011;9947;57.722;12.012;2022-09-13T06:46:33;8.33;;;2.00;;
19599;SDS011;9947;57.722;12.012;2022-09-13T06:49:08;7.63;;;1.70;;
19599;SDS011;9947;57.722;12.012;2022-09-13T06:51:35;4.90;;;1.77;;
19599;SDS011;9947;57.722;12.012;2022-09-13T06:54:18;8.93;;;1.80;;
19599;SDS011;9947;57.722;12.012;2022-09-13T06:56:57;11.07;;;1.90;;
19599;SDS011;9947;57.722;12.012;2022-09-13T06:59:23;10.00;;;2.10;;
19599;SDS011;9947;57.722;12.012;2022-09-13T07:01:59;15.30;;;2.20;;
19599;SDS011;9947;57.722;12.012;2022-09-13T07:04:32;11.33;;;1.90;;
19599;SDS011;9947;57.722;12.012;2022-09-13T07:07:22;9.20;;;1.70;;
19599;SDS011;9947;57.722;12.012;2022-09-13T07:10:02;9.97;;;2.13;;
19599;SDS011;9947;57.722;12.012;2022-09-13T07:12:29;13.03;;;2.40;;
19599;SDS011;9947;57.722;12.012;2022-09-13T07:15:02;8.83;;;2.07;;
19599;SDS011;9947;57.722;12.012;2022-09-13T07:17:40;13.20;;;1.90;;
19599;SDS011;9947;57.722;12.012;2022-09-13T07:20:07;6.17;;;1.90;;
19599;SDS011;9947;57.722;12.012;2022-09-13T07:22:38;10.47;;;1.87;;
19599;SDS011;9947;57.722;12.012;2022-09-13T07:25:24;10.93;;;2.27;;
19599;SDS011;9947;57.722;12.012;2022-09-13T07:28:37;5.17;;;1.63;;
19599;SDS011;9947;57.722;12.012;2022-09-13T07:31:19;9.50;;;1.90;;
19599;SDS011;9947;57.722;12.012;2022-09-13T07:33:51;11.07;;;1.93;;
19599;SDS011;9947;57.722;12.012;2022-09-13T07:36:27;8.90;;;1.80;;
19599;SDS011;9947;57.722;12.012;2022-09-13T07:38:59;10.70;;;2.00;;
19599;SDS011;9947;57.722;12.012;2022-09-13T07:41:27;8.10;;;2.20;;
19599;SDS011;9947;57.722;12.012;2022-09-13T07:43:59;8.93;;;2.23;;
19599;SDS011;9947;57.722;12.012;2022-09-13T07:46:27;7.57;;;1.90;;
19599;SDS011;9947;57.722;12.012;2022-09-13T07:48:58;6.47;;;1.80;;
19599;SDS011;9947;57.722;12.012;2022-09-13T07:51:29;9.23;;;2.03;;
19599;SDS011;9947;57.722;12.012;2022-09-13T07:54:03;11.23;;;2.20;;
19599;SDS011;9947;57.722;12.012;2022-09-13T07:56:32;13.47;;;2.00;;
19599;SDS011;9947;57.722;12.012;2022-09-13T07:59:11;12.67;;;2.27;;
19599;SDS011;9947;57.722;12.012;2022-09-13T08:01:48;10.67;;;2.17;;
19599;SDS011;9947;57.722;12.012;2022-09-13T08:04:18;15.03;;;2.20;;
19599;SDS011;9947;57.722;12.012;2022-09-13T08:06:51;8.83;;;2.17;;
19599;SDS011;9947;57.722;12.012;2022-09-13T08:09:18;9.43;;;2.30;;
19599;SDS011;9947;57.722;12.012;2022-09-13T08:11:47;8.50;;;2.20;;
19599;SDS011;9947;57.722;12.012;2022-09-13T08:14:26;11.33;;;2.50;;
19599;SDS011;9947;57.722;12.012;2022-09-13T08:16:53;7.03;;;2.00;;
19599;SDS011;9947;57.722;12.012;2022-09-13T08:19:30;12.33;;;2.30;;
19599;SDS011;9947;57.722;12.012;2022-09-13T08:22:05;12.87;;;1.90;;
19599;SDS011;9947;57.722;12.012;2022-09-13T08:24:49;5.77;;;1.80;;
19599;SDS011;9947;57.722;12.012;2022-09-13T08:30:40;7.30;;;2.00;;
19599;SDS011;9947;57.722;12.012;2022-09-13T08:33:48;10.43;;;2.07;;
19599;SDS011;9947;57.722;12.012;2022-09-13T08:39:52;14.57;;;1.90;;
19599;SDS011;9947;57.722;12.012;2022-09-13T08:45:16;11.37;;;2.07;;
19599;SDS011;9947;57.722;12.012;2022-09-13T09:07:58;10.97;;;2.23;;
19599;SDS011;9947;57.722;12.012;2022-09-13T09:10:49;7.77;;;1.73;;
19599;SDS011;9947;57.722;12.012;2022-09-13T09:13:20;10.67;;;2.00;;
19599;SDS011;9947;57.722;12.012;2022-09-13T09:15:55;10.23;;;2.20;;
19599;SDS011;9947;57.722;12.012;2022-09-13T09:18:34;8.63;;;2.03;;
19599;SDS011;9947;57.722;12.012;2022-09-13T09:21:09;7.87;;;1.60;;
19599;SDS011;9947;57.722;12.012;2022-09-13T09:23:56;8.80;;;1.77;;
19599;SDS011;9947;57.722;12.012;2022-09-13T09:26:29;10.90;;;1.93;;
19599;SDS011;9947;57.722;12.012;2022-09-13T09:29:04;8.33;;;1.50;;
19599;SDS011;9947;57.722;12.012;2022-09-13T09:31:43;5.30;;;1.70;;
19599;SDS011;9947;57.722;12.012;2022-09-13T09:34:35;7.23;;;1.47;;
19599;SDS011;9947;57.722;12.012;2022-09-13T09:37:18;8.37;;;1.73;;
19599;SDS011;9947;57.722;12.012;2022-09-13T09:39:57;10.67;;;1.97;;
19599;SDS011;9947;57.722;12.012;2022-09-13T09:42:53;6.00;;;1.83;;
19599;SDS011;9947;57.722;12.012;2022-09-13T09:45:32;7.17;;;2.30;;
19599;SDS011;9947;57.722;12.012;2022-09-13T09:48:26;7.57;;;1.90;;
19599;SDS011;9947;57.722;12.012;2022-09-13T09:51:13;7.03;;;1.90;;
19599;SDS011;9947;57.722;12.012;2022-09-13T09:53:59;11.33;;;2.40;;
19599;SDS011;9947;57.722;12.012;2022-09-13T09:56:42;10.03;;;2.73;;
19599;SDS011;9947;57.722;12.012;2022-09-13T09:59:30;12.27;;;2.70;;
19599;SDS011;9947;57.722;12.012;2022-09-13T10:01:58;15.97;;;2.73;;
19599;SDS011;9947;57.722;12.012;2022-09-13T10:04:35;9.37;;;2.23;;
19599;SDS011;9947;57.722;12.012;2022-09-13T10:21:05;8.07;;;2.53;;
19599;SDS011;9947;57.722;12.012;2022-09-13T10:24:14;11.27;;;2.37;;
19599;SDS011;9947;57.722;12.012;2022-09-13T10:27:20;12.93;;;2.37;;
19599;SDS011;9947;57.722;12.012;2022-09-13T10:30:45;8.83;;;2.00;;
19599;SDS011;9947;57.722;12.012;2022-09-13T10:33:38;7.67;;;2.20;;
19599;SDS011;9947;57.722;12.012;2022-09-13T10:36:15;14.07;;;2.47;;
19599;SDS011;9947;57.722;12.012;2022-09-13T10:38:46;10.30;;;2.30;;
19599;SDS011;9947;57.722;12.012;2022-09-13T10:41:25;8.20;;;2.20;;
19599;SDS011;9947;57.722;12.012;2022-09-13T10:44:06;15.60;;;2.67;;
19599;SDS011;9947;57.722;12.012;2022-09-13T10:46:59;13.97;;;2.77;;
19599;SDS011;9947;57.722;12.012;2022-09-13T10:49:44;10.40;;;2.23;;
19599;SDS011;9947;57.722;12.012;2022-09-13T10:52:27;9.93;;;2.20;;
19599;SDS011;9947;57.722;12.012;2022-09-13T10:57:53;10.13;;;2.20;;
19599;SDS011;9947;57.722;12.012;2022-09-13T11:00:28;11.27;;;2.50;;
19599;SDS011;9947;57.722;12.012;2022-09-13T11:03:12;5.07;;;1.70;;
19599;SDS011;9947;57.722;12.012;2022-09-13T11:06:15;8.70;;;1.90;;
19599;SDS011;9947;57.722;12.012;2022-09-13T11:08:51;6.03;;;1.80;;
19599;SDS011;9947;57.722;12.012;2022-09-13T11:14:58;10.70;;;2.40;;
19599;SDS011;9947;57.722;12.012;2022-09-13T11:17:52;8.87;;;2.07;;
19599;SDS011;9947;57.722;12.012;2022-09-13T11:20:38;12.43;;;2.43;;
19599;SDS011;9947;57.722;12.012;2022-09-13T11:26:38;10.60;;;2.20;;
19599;SDS011;9947;57.722;12.012;2022-09-13T11:29:38;12.10;;;2.80;;
19599;SDS011;9947;57.722;12.012;2022-09-13T11:32:28;12.60;;;2.10;;
19599;SDS011;9947;57.722;12.012;2022-09-13T11:35:22;4.07;;;2.27;;
19599;SDS011;9947;57.722;12.012;2022-09-13T11:38:05;8.07;;;1.90;;
19599;SDS011;9947;57.722;12.012;2022-09-13T11:40:57;7.20;;;1.90;;
19599;SDS011;9947;57.722;12.012;2022-09-13T11:46:33;4.80;;;1.63;;
19599;SDS011;9947;57.722;12.012;2022-09-13T11:52:06;5.27;;;1.30;;
19599;SDS011;9947;57.722;12.012;2022-09-13T11:54:52;3.10;;;1.37;;
19599;SDS011;9947;57.722;12.012;2022-09-13T11:57:30;5.23;;;1.37;;
19599;SDS011;9947;57.722;12.012;2022-09-13T12:00:03;2.20;;;1.40;;
19599;SDS011;9947;57.722;12.012;2022-09-13T12:02:41;2.87;;;1.30;;
19599;SDS011;9947;57.722;12.012;2022-09-13T12:05:13;4.13;;;1.37;;
19599;SDS011;9947;57.722;12.012;2022-09-13T12:07:45;2.73;;;1.23;;
19599;SDS011;9947;57.722;12.012;2022-09-13T12:10:18;4.83;;;1.67;;
19599;SDS011;9947;57.722;12.012;2022-09-13T12:12:50;5.03;;;1.63;;
19599;SDS011;9947;57.722;12.012;2022-09-13T12:15:21;3.17;;;1.53;;
19599;SDS011;9947;57.722;12.012;2022-09-13T12:17:56;3.40;;;1.60;;
19599;SDS011;9947;57.722;12.012;2022-09-13T12:20:29;5.63;;;1.83;;
19599;SDS011;9947;57.722;12.012;2022-09-13T12:23:00;4.83;;;1.53;;
19599;SDS011;9947;57.722;12.012;2022-09-13T12:25:33;5.63;;;1.50;;
19599;SDS011;9947;57.722;12.012;2022-09-13T12:28:09;5.23;;;1.70;;
19599;SDS011;9947;57.722;12.012;2022-09-13T12:30:46;3.53;;;1.60;;
19599;SDS011;9947;57.722;12.012;2022-09-13T12:33:21;6.07;;;1.77;;
19599;SDS011;9947;57.722;12.012;2022-09-13T12:36:01;7.53;;;2.03;;
19599;SDS011;9947;57.722;12.012;2022-09-13T12:42:02;6.93;;;1.93;;
19599;SDS011;9947;57.722;12.012;2022-09-13T12:45:33;3.33;;;1.40;;
19599;SDS011;9947;57.722;12.012;2022-09-13T12:48:26;3.73;;;1.43;;
19599;SDS011;9947;57.722;12.012;2022-09-13T12:51:12;5.63;;;1.70;;
19599;SDS011;9947;57.722;12.012;2022-09-13T12:56:49;2.40;;;1.30;;
19599;SDS011;9947;57.722;12.012;2022-09-13T12:59:46;4.80;;;1.30;;
19599;SDS011;9947;57.722;12.012;2022-09-13T13:02:26;4.30;;;1.20;;
19599;SDS011;9947;57.722;12.012;2022-09-13T13:05:02;8.03;;;1.40;;
19599;SDS011;9947;57.722;12.012;2022-09-13T13:07:33;3.60;;;1.57;;
19599;SDS011;9947;57.722;12.012;2022-09-13T13:10:21;3.50;;;1.50;;
19599;SDS011;9947;57.722;12.012;2022-09-13T13:12:51;2.57;;;1.20;;
19599;SDS011;9947;57.722;12.012;2022-09-13T13:27:35;2.53;;;1.50;;
19599;SDS011;9947;57.722;12.012;2022-09-13T13:33:27;3.57;;;1.20;;
19599;SDS011;9947;57.722;12.012;2022-09-13T13:35:57;3.50;;;1.33;;
19599;SDS011;9947;57.722;12.012;2022-09-13T13:38:48;6.90;;;1.47;;
19599;SDS011;9947;57.722;12.012;2022-09-13T13:50:19;4.00;;;1.20;;
19599;SDS011;9947;57.722;12.012;2022-09-13T13:52:51;5.23;;;1.50;;
19599;SDS011;9947;57.722;12.012;2022-09-13T13:55:29;5.87;;;1.50;;
19599;SDS011;9947;57.722;12.012;2022-09-13T13:58:14;3.40;;;1.60;;
19599;SDS011;9947;57.722;12.012;2022-09-13T14:00:52;6.27;;;1.40;;
19599;SDS011;9947;57.722;12.012;2022-09-13T14:03:35;4.97;;;1.43;;
19599;SDS011;9947;57.722;12.012;2022-09-13T14:06:16;4.27;;;1.60;;
19599;SDS011;9947;57.722;12.012;2022-09-13T14:09:06;5.17;;;1.67;;
19599;SDS011;9947;57.722;12.012;2022-09-13T14:12:00;7.53;;;1.70;;
19599;SDS011;9947;57.722;12.012;2022-09-13T14:14:44;8.10;;;1.60;;
19599;SDS011;9947;57.722;12.012;2022-09-13T14:17:44;5.40;;;2.17;;
19599;SDS011;9947;57.722;12.012;2022-09-13T14:20:31;7.17;;;1.97;;
19599;SDS011;9947;57.722;12.012;2022-09-13T14:23:10;10.00;;;2.10;;
19599;SDS011;9947;57.722;12.012;2022-09-13T14:25:42;11.43;;;2.10;;
19599;SDS011;9947;57.722;12.012;2022-09-13T14:28:11;10.03;;;2.47;;
19599;SDS011;9947;57.722;12.012;2022-09-13T14:30:47;16.77;;;3.07;;
19599;SDS011;9947;57.722;12.012;2022-09-13T14:33:33;15.80;;;3.07;;
19599;SDS011;9947;57.722;12.012;2022-09-13T14:36:14;13.87;;;3.20;;
19599;SDS011;9947;57.722;12.012;2022-09-13T14:38:48;13.17;;;2.87;;
19599;SDS011;9947;57.722;12.012;2022-09-13T14:41:18;19.47;;;3.30;;
19599;SDS011;9947;57.722;12.012;2022-09-13T14:44:07;11.37;;;2.43;;
19599;SDS011;9947;57.722;12.012;2022-09-13T14:46:50;14.73;;;2.63;;
19599;SDS011;9947;57.722;12.012;2022-09-13T14:49:28;6.40;;;1.70;;
19599;SDS011;9947;57.722;12.012;2022-09-13T14:51:58;8.00;;;1.93;;
19599;SDS011;9947;57.722;12.012;2022-09-13T14:54:37;10.00;;;2.17;;
19599;SDS011;9947;57.722;12.012;2022-09-13T14:57:13;8.97;;;2.37;;
19599;SDS011;9947;57.722;12.012;2022-09-13T14:59:49;12.97;;;2.23;;
19599;SDS011;9947;57.722;12.012;2022-09-13T15:02:26;10.77;;;1.87;;
19599;SDS011;9947;57.722;12.012;2022-09-13T15:04:59;9.10;;;1.83;;
19599;SDS011;9947;57.722;12.012;2022-09-13T15:07:27;11.23;;;2.27;;
19599;SDS011;9947;57.722;12.012;2022-09-13T15:10:05;13.90;;;2.63;;
19599;SDS011;9947;57.722;12.012;2022-09-13T15:12:35;12.50;;;2.23;;
19599;SDS011;9947;57.722;12.012;2022-09-13T15:18:03;11.30;;;3.10;;
19599;SDS011;9947;57.722;12.012;2022-09-13T15:20:49;16.63;;;2.67;;
19599;SDS011;9947;57.722;12.012;2022-09-13T15:23:19;14.07;;;3.50;;
19599;SDS011;9947;57.722;12.012;2022-09-13T15:25:52;26.83;;;3.57;;
19599;SDS011;9947;57.722;12.012;2022-09-13T15:31:23;21.33;;;3.53;;
19599;SDS011;9947;57.722;12.012;2022-09-13T15:34:17;24.93;;;4.23;;
19599;SDS011;9947;57.722;12.012;2022-09-13T15:43:17;24.53;;;4.20;;
19599;SDS011;9947;57.722;12.012;2022-09-13T15:46:09;23.97;;;4.50;;
19599;SDS011;9947;57.722;12.012;2022-09-13T15:51:41;33.13;;;4.70;;
19599;SDS011;9947;57.722;12.012;2022-09-13T15:54:20;24.07;;;4.60;;
19599;SDS011;9947;57.722;12.012;2022-09-13T16:30:49;20.20;;;3.77;;
19599;SDS011;9947;57.722;12.012;2022-09-13T16:39:59;16.07;;;3.37;;
19599;SDS011;9947;57.722;12.012;2022-09-13T16:42:27;23.47;;;3.67;;
19599;SDS011;9947;57.722;12.012;2022-09-13T16:44:54;21.47;;;3.93;;
19599;SDS011;9947;57.722;12.012;2022-09-13T16:47:22;20.27;;;4.00;;
19599;SDS011;9947;57.722;12.012;2022-09-13T16:49:51;24.97;;;4.50;;
19599;SDS011;9947;57.722;12.012;2022-09-13T16:52:23;32.37;;;4.87;;
19599;SDS011;9947;57.722;12.012;2022-09-13T16:54:50;27.43;;;4.40;;
19599;SDS011;9947;57.722;12.012;2022-09-13T16:57:17;20.33;;;4.50;;
19599;SDS011;9947;57.722;12.012;2022-09-13T16:59:56;23.43;;;3.90;;
19599;SDS011;9947;57.722;12.012;2022-09-13T17:02:23;22.00;;;4.20;;
19599;SDS011;9947;57.722;12.012;2022-09-13T17:04:51;21.93;;;3.80;;
19599;SDS011;9947;57.722;12.012;2022-09-13T17:07:37;28.00;;;4.23;;
19599;SDS011;9947;57.722;12.012;2022-09-13T17:10:13;16.90;;;3.97;;
19599;SDS011;9947;57.722;12.012;2022-09-13T17:12:41;27.07;;;4.20;;
19599;SDS011;9947;57.722;12.012;2022-09-13T17:15:10;19.20;;;3.43;;
19599;SDS011;9947;57.722;12.012;2022-09-13T17:17:44;21.83;;;4.07;;
19599;SDS011;9947;57.722;12.012;2022-09-13T17:20:20;21.70;;;4.23;;
19599;SDS011;9947;57.722;12.012;2022-09-13T17:22:49;16.50;;;3.40;;
19599;SDS011;9947;57.722;12.012;2022-09-13T17:25:39;25.83;;;4.30;;
19599;SDS011;9947;57.722;12.012;2022-09-13T17:31:23;16.87;;;3.60;;
19599;SDS011;9947;57.722;12.012;2022-09-13T17:34:19;18.53;;;3.27;;
19599;SDS011;9947;57.722;12.012;2022-09-13T17:36:48;18.67;;;4.40;;
19599;SDS011;9947;57.722;12.012;2022-09-13T17:39:34;16.67;;;3.40;;
19599;SDS011;9947;57.722;12.012;2022-09-13T17:42:28;20.10;;;3.40;;
19599;SDS011;9947;57.722;12.012;2022-09-13T17:45:06;22.93;;;3.53;;
19599;SDS011;9947;57.722;12.012;2022-09-13T17:47:42;13.33;;;2.93;;
19599;SDS011;9947;57.722;12.012;2022-09-13T17:50:13;16.57;;;3.73;;
19599;SDS011;9947;57.722;12.012;2022-09-13T17:55:26;28.23;;;4.20;;
19599;SDS011;9947;57.722;12.012;2022-09-13T17:57:58;23.07;;;4.63;;
19599;SDS011;9947;57.722;12.012;2022-09-13T18:00:26;20.57;;;3.57;;
19599;SDS011;9947;57.722;12.012;2022-09-13T18:03:02;17.80;;;3.33;;
19599;SDS011;9947;57.722;12.012;2022-09-13T18:05:29;19.63;;;3.97;;
19599;SDS011;9947;57.722;12.012;2022-09-13T18:11:32;17.40;;;3.80;;
19599;SDS011;9947;57.722;12.012;2022-09-13T18:13:59;17.63;;;3.53;;
19599;SDS011;9947;57.722;12.012;2022-09-13T18:16:27;23.30;;;4.53;;
19599;SDS011;9947;57.722;12.012;2022-09-13T18:19:08;21.93;;;4.50;;
19599;SDS011;9947;57.722;12.012;2022-09-13T18:21:41;24.37;;;4.53;;
19599;SDS011;9947;57.722;12.012;2022-09-13T18:24:18;17.00;;;3.50;;
19599;SDS011;9947;57.722;12.012;2022-09-13T18:27:02;21.53;;;4.00;;
19599;SDS011;9947;57.722;12.012;2022-09-13T18:29:32;19.83;;;3.80;;
19599;SDS011;9947;57.722;12.012;2022-09-13T18:32:13;16.63;;;3.13;;
19599;SDS011;9947;57.722;12.012;2022-09-13T18:34:42;33.87;;;4.50;;
19599;SDS011;9947;57.722;12.012;2022-09-13T18:37:10;18.03;;;3.83;;
19599;SDS011;9947;57.722;12.012;2022-09-13T18:43:03;18.70;;;3.40;;
19599;SDS011;9947;57.722;12.012;2022-09-13T18:48:59;26.87;;;4.30;;
19599;SDS011;9947;57.722;12.012;2022-09-13T18:51:36;29.97;;;4.17;;
19599;SDS011;9947;57.722;12.012;2022-09-13T18:54:30;27.03;;;3.80;;
19599;SDS011;9947;57.722;12.012;2022-09-13T19:01:06;24.57;;;4.33;;
19599;SDS011;9947;57.722;12.012;2022-09-13T19:03:55;23.03;;;4.40;;
19599;SDS011;9947;57.722;12.012;2022-09-13T19:21:12;29.83;;;4.73;;
19599;SDS011;9947;57.722;12.012;2022-09-13T19:38:52;23.87;;;4.53;;
19599;SDS011;9947;57.722;12.012;2022-09-13T19:41:38;29.40;;;5.03;;
19599;SDS011;9947;57.722;12.012;2022-09-13T19:44:06;29.33;;;4.50;;
19599;SDS011;9947;57.722;12.012;2022-09-13T19:46:41;23.97;;;3.87;;
19599;SDS011;9947;57.722;12.012;2022-09-13T19:49:14;23.93;;;4.27;;
19599;SDS011;9947;57.722;12.012;2022-09-13T19:51:48;27.57;;;4.77;;
19599;SDS011;9947;57.722;12.012;2022-09-13T19:54:28;24.23;;;3.77;;
19599;SDS011;9947;57.722;12.012;2022-09-13T20:00:34;23.23;;;3.97;;
19599;SDS011;9947;57.722;12.012;2022-09-13T20:03:49;25.87;;;4.43;;
19599;SDS011;9947;57.722;12.012;2022-09-13T20:07:09;26.37;;;4.70;;
19599;SDS011;9947;57.722;12.012;2022-09-13T20:13:32;22.20;;;4.37;;
19599;SDS011;9947;57.722;12.012;2022-09-13T20:16:47;26.47;;;4.13;;
19599;SDS011;9947;57.722;12.012;2022-09-13T20:19:27;22.70;;;4.23;;
19599;SDS011;9947;57.722;12.012;2022-09-13T20:21:56;24.87;;;4.53;;
19599;SDS011;9947;57.722;12.012;2022-09-13T20:24:25;19.30;;;4.20;;
19599;SDS011;9947;57.722;12.012;2022-09-13T20:26:53;25.00;;;4.07;;
19599;SDS011;9947;57.722;12.012;2022-09-13T20:29:20;21.77;;;4.13;;
19599;SDS011;9947;57.722;12.012;2022-09-13T20:31:47;29.00;;;4.73;;
19599;SDS011;9947;57.722;12.012;2022-09-13T20:34:16;29.97;;;4.30;;
19599;SDS011;9947;57.722;12.012;2022-09-13T20:36:43;27.13;;;4.47;;
19599;SDS011;9947;57.722;12.012;2022-09-13T20:39:11;25.33;;;4.20;;
19599;SDS011;9947;57.722;12.012;2022-09-13T20:41:39;29.23;;;4.30;;
19599;SDS011;9947;57.722;12.012;2022-09-13T20:44:08;24.43;;;3.90;;
19599;SDS011;9947;57.722;12.012;2022-09-13T20:46:47;28.03;;;4.67;;
19599;SDS011;9947;57.722;12.012;2022-09-13T20:49:16;24.00;;;3.70;;
19599;SDS011;9947;57.722;12.012;2022-09-13T20:51:43;31.23;;;4.37;;
19599;SDS011;9947;57.722;12.012;2022-09-13T20:54:15;22.03;;;4.20;;
19599;SDS011;9947;57.722;12.012;2022-09-13T20:56:52;21.57;;;3.60;;
19599;SDS011;9947;57.722;12.012;2022-09-13T20:59:21;22.40;;;3.60;;
19599;SDS011;9947;57.722;12.012;2022-09-13T21:01:50;22.50;;;4.30;;
19599;SDS011;9947;57.722;12.012;2022-09-13T21:04:24;29.70;;;4.17;;
19599;SDS011;9947;57.722;12.012;2022-09-13T21:06:51;24.67;;;3.37;;
19599;SDS011;9947;57.722;12.012;2022-09-13T21:09:35;22.03;;;3.97;;
19599;SDS011;9947;57.722;12.012;2022-09-13T21:12:02;29.87;;;4.03;;
19599;SDS011;9947;57.722;12.012;2022-09-13T21:14:33;16.93;;;2.83;;
19599;SDS011;9947;57.722;12.012;2022-09-13T21:17:03;13.80;;;3.27;;
19599;SDS011;9947;57.722;12.012;2022-09-13T21:19:34;16.87;;;3.60;;
19599;SDS011;9947;57.722;12.012;2022-09-13T21:22:01;18.73;;;3.80;;
19599;SDS011;9947;57.722;12.012;2022-09-13T21:24:28;9.33;;;2.67;;
19599;SDS011;9947;57.722;12.012;2022-09-13T21:26:55;8.90;;;2.70;;
19599;SDS011;9947;57.722;12.012;2022-09-13T21:29:22;11.07;;;2.93;;
19599;SDS011;9947;57.722;12.012;2022-09-13T21:31:53;17.00;;;2.93;;
19599;SDS011;9947;57.722;12.012;2022-09-13T21:34:20;16.00;;;2.73;;
19599;SDS011;9947;57.722;12.012;2022-09-13T21:36:48;15.77;;;3.43;;
19599;SDS011;9947;57.722;12.012;2022-09-13T21:39:16;14.93;;;2.60;;
19599;SDS011;9947;57.722;12.012;2022-09-13T21:41:43;13.97;;;3.33;;
19599;SDS011;9947;57.722;12.012;2022-09-13T21:44:12;11.70;;;2.40;;
19599;SDS011;9947;57.722;12.012;2022-09-13T21:46:40;10.83;;;2.50;;
19599;SDS011;9947;57.722;12.012;2022-09-13T21:49:10;9.77;;;2.60;;
19599;SDS011;9947;57.722;12.012;2022-09-13T21:51:38;15.40;;;2.70;;
19599;SDS011;9947;57.722;12.012;2022-09-13T21:54:07;9.87;;;2.50;;
19599;SDS011;9947;57.722;12.012;2022-09-13T21:56:36;11.37;;;2.10;;
19599;SDS011;9947;57.722;12.012;2022-09-13T21:59:05;14.30;;;2.50;;
19599;SDS011;9947;57.722;12.012;2022-09-13T22:01:36;8.47;;;1.80;;